General Aviation Weather

Text Reports

Enter one or more of the following location identifiers separated by a space:

Zip Code, Four-Character ICAO or Three-Character IATA airport codes.

METAR - Aviation Routine Weather Report
KLJF - Litchfield, Minnesota
Updated at 10:32 PM GMT on July 28, 2014 (5:32 PM CDT):
METAR KLJF 282232Z AUTO 32007KT 10SM SCT050 BKN080 23/11 A3019 RMK AO2
TAF - Terminal Area Forecast
KLJF - Litchfield, Minnesota
Updated at 10:32 PM GMT on July 28, 2014 (5:32 PM CDT):
No TAF is currently available for this location.
Decoded:
No decoded TAF is available.
PIREP - Pilot Weather Report
KLJF - Litchfield, Minnesota
Updated at 10:32 PM GMT on July 28, 2014 (5:32 PM CDT):
No PIREP is currently available for this location.
AIRMET - Airmens Meteorological Information
KLJF - Litchfield, Minnesota
Updated at 10:32 PM GMT on July 28, 2014 (5:32 PM CDT):
No AIRMET is currently available for this location.
SIGMET - Significant Meteorological Information
KLJF - Litchfield, Minnesota
Updated at 10:32 PM GMT on July 28, 2014 (5:32 PM CDT):
No SIGMET is currently available for this location.
NOTAM - Notice to Airmen
KLJF - Litchfield, Minnesota
Updated at 10:32 PM GMT on July 28, 2014 (5:32 PM CDT):
No NOTAM is currently available for this location.
Forecast Area
KLJF - Litchfield, Minnesota
Updated at 10:32 PM GMT on July 28, 2014 (5:32 PM CDT):
No NOTAM is currently available for this location.
Aviation Weather Maps